Hlavní strana
METAR-TAF:

METAR-TAF

Letiště :

Béchar, Alžírsko

zeměpisná šířka: 31-37N, zeměpisná délka: 002-14W, výška: 773 m

Aktuální stav počasí

Zpráva byla vytvořena před 36 minutami, v 06:00 UTC
Východojihovýchodní vítr 11 kt
Teplota 23°C
Vlhkost vzduchu 47%
Tlak 1014 hPa
Viditelnost: 3000 m
Polojasno ve výšce 3300 ft
Polojasno ve výšce 10000 ft
rozsáhlý prach

METAR: DAOR 300600Z 11011KT 3000 DU SCT033 SCT100 23/11 Q1014

Čas: 07:36 (06:36 UTC)

Předpověď počasí

Zpráva byla vytvořena před 1 hodinou a 36 minutami, v 05:00 UTC
Předpověď platná od 30 v 06 UTC do 30 v 15 UTC
Východní vítr 10 kt
Viditelnost: 3000 m
Polojasno ve výšce 3300 ft
rozsáhlý prach
Dočasný
od 30 v 03 UTC do 30 v 05 UTC
Viditelnost: 4000 m
Skoro jasno ve výšce 3000 ft, Cumulonimbus.
bouřka, slabý déšť
Změna
od 30 v 08 UTC do 30 v 12 UTC
Jihojihovýchodní vítr 10 kt
Viditelnost: 6000 m

TAF: DAOR 300500Z 3006/3015 10010KT 3000 DU SCT033 TEMPO 3003/3005 4000 -TSRA FEW030CB BECMG 3008/3012 16010KT 6000 NSW

Stav a předpovědi počasí z více než 4 000 letišť (zprávy METAR a TAF).

Červené a žluté tečky na mapě představují dostupné meteorologické stanice.

Když kurzor umístíte na tečku, zobrazí se název stanice.

Pak kliknutím zobrazíte stav a předpověď počasí.

Chcete-li změnit mapu, kliknutím na zelené tlačítko se znaménkem +mapu přiblížíte, kliknutím na zelené tlačítko se znaménkem – mapu oddálíte a kliknutím na zelené šipky přejdete na sousední mapy.


METAR-TAF: